createdAt,value
2023-02-06T00:00:14.688Z,85.14
2023-02-06T00:04:18.659Z,86.11
2023-02-06T00:08:26.153Z,85.68
2023-02-06T00:12:34.930Z,85.73
2023-02-06T00:16:40.990Z,85.51
2023-02-06T00:20:43.930Z,85.82
2023-02-06T00:24:51.102Z,86.89
2023-02-06T00:28:54.738Z,86.01
2023-02-06T00:33:02.340Z,85.46
2023-02-06T00:37:05.451Z,84.06
2023-02-06T00:41:17.827Z,85.13
2023-02-06T00:45:24.453Z,86.90
2023-02-06T00:49:30.902Z,85.67
2023-02-06T00:53:37.763Z,86.07
2023-02-06T00:57:48.552Z,84.17
2023-02-06T01:01:56.288Z,83.16
2023-02-06T01:06:02.310Z,83.50
2023-02-06T01:10:06.307Z,84.42
2023-02-06T01:14:15.228Z,82.20
2023-02-06T01:18:21.929Z,86.38
2023-02-06T01:22:48.570Z,85.68
2023-02-06T01:27:06.318Z,85.52
2023-02-06T01:31:14.114Z,86.92
2023-02-06T01:35:18.277Z,88.48
2023-02-06T01:39:25.821Z,87.74
2023-02-06T01:43:34.730Z,87.80
2023-02-06T01:47:38.677Z,88.85
2023-02-06T01:51:42.494Z,87.70
2023-02-06T01:55:52.420Z,88.18
2023-02-06T01:59:59.500Z,86.82
2023-02-06T02:04:06.808Z,87.22
2023-02-06T02:08:25.064Z,88.00
2023-02-06T02:12:36.782Z,88.47
2023-02-06T02:16:48.678Z,88.96
2023-02-06T02:21:43.261Z,88.95
2023-02-06T02:26:40.543Z,89.40
2023-02-06T02:31:08.491Z,90.08
2023-02-06T02:35:21.604Z,89.64
2023-02-06T02:39:34.362Z,90.33
2023-02-06T02:43:46.668Z,91.72
2023-02-06T02:47:56.565Z,90.94
2023-02-06T02:52:08.928Z,91.00
2023-02-06T02:56:18.189Z,91.08
2023-02-06T03:00:23.364Z,92.52
2023-02-06T03:04:29.567Z,92.98
2023-02-06T03:08:45.956Z,92.79
2023-02-06T03:12:54.178Z,92.30
2023-02-06T03:17:00.817Z,92.46
2023-02-06T03:21:05.437Z,93.54
2023-02-06T03:25:14.327Z,92.83
2023-02-06T03:29:18.259Z,92.76
2023-02-06T03:33:23.666Z,93.40
2023-02-06T03:37:27.213Z,94.19
2023-02-06T03:41:38.740Z,93.39
2023-02-06T03:45:43.493Z,92.56
2023-02-06T03:49:47.537Z,92.95
2023-02-06T03:53:51.660Z,93.86
2023-02-06T03:58:03.556Z,93.99
2023-02-06T04:02:07.154Z,93.88
2023-02-06T04:06:10.327Z,93.64
2023-02-06T04:10:20.578Z,94.06
2023-02-06T04:14:24.936Z,93.66
2023-02-06T04:18:28.772Z,93.65
2023-02-06T04:22:38.299Z,93.62
2023-02-06T04:26:44.725Z,93.37
2023-02-06T04:30:50.165Z,93.80
2023-02-06T04:34:53.245Z,93.57
2023-02-06T04:38:56.763Z,94.05
2023-02-06T04:43:00.162Z,93.56
2023-02-06T04:47:04.560Z,93.51
2023-02-06T04:51:08.119Z,93.80
2023-02-06T04:55:11.365Z,94.76
2023-02-06T04:59:14.552Z,93.92
2023-02-06T05:03:26.138Z,94.29
2023-02-06T05:07:29.150Z,94.87
2023-02-06T05:11:32.749Z,94.73
2023-02-06T05:15:38.130Z,95.32
2023-02-06T05:19:45.893Z,94.78
2023-02-06T05:23:48.703Z,95.62
2023-02-06T05:27:58.755Z,95.93
2023-02-06T05:32:05.171Z,95.76
2023-02-06T05:36:10.579Z,94.82
2023-02-06T05:40:14.765Z,94.92
2023-02-06T05:44:21.219Z,95.55
2023-02-06T05:48:35.064Z,94.99
2023-02-06T05:52:40.609Z,95.52
2023-02-06T05:56:44.620Z,95.84
2023-02-06T06:00:50.988Z,95.23
2023-02-06T06:04:55.243Z,95.43
2023-02-06T06:09:02.561Z,95.26
2023-02-06T06:13:09.803Z,95.23
2023-02-06T06:17:13.336Z,94.75
2023-02-06T06:21:18.882Z,94.95
2023-02-06T06:25:23.491Z,94.50
2023-02-06T06:29:26.598Z,94.70
2023-02-06T06:33:29.699Z,94.37
2023-02-06T06:37:32.561Z,94.88
2023-02-06T06:41:37.227Z,94.84
2023-02-06T06:45:40.273Z,95.38
2023-02-06T06:49:43.642Z,94.67
2023-02-06T06:53:58.596Z,94.26
2023-02-06T06:58:03.898Z,94.26
2023-02-06T07:02:07.751Z,92.74
2023-02-06T07:06:20.640Z,93.76
2023-02-06T07:10:23.760Z,93.08
2023-02-06T07:14:28.879Z,93.18
2023-02-06T07:18:38.750Z,92.98
2023-02-06T07:22:47.754Z,92.40
2023-02-06T07:26:59.181Z,92.20
2023-02-06T07:31:16.297Z,91.46
2023-02-06T07:35:28.270Z,90.50
2023-02-06T07:39:33.939Z,91.33
2023-02-06T07:43:37.401Z,91.39
2023-02-06T07:47:42.884Z,91.31
2023-02-06T07:51:49.884Z,90.79
2023-02-06T07:55:56.134Z,90.25
2023-02-06T08:00:00.129Z,90.06
2023-02-06T08:04:05.122Z,89.36
2023-02-06T08:08:09.998Z,89.41
2023-02-06T08:12:13.596Z,89.17
2023-02-06T08:16:18.734Z,89.35
2023-02-06T08:20:26.292Z,89.49
2023-02-06T08:24:30.475Z,88.71
2023-02-06T08:28:39.454Z,87.69
2023-02-06T08:32:43.686Z,86.02
2023-02-06T08:36:49.242Z,87.05
2023-02-06T08:40:53.178Z,85.70
2023-02-06T08:44:57.098Z,85.53
2023-02-06T08:49:04.428Z,81.91
2023-02-06T08:53:18.693Z,82.67
2023-02-06T08:57:26.816Z,84.65
2023-02-06T09:01:32.808Z,83.91
2023-02-06T09:05:37.668Z,83.86
2023-02-06T09:09:42.568Z,81.32
2023-02-06T09:13:49.614Z,80.21
2023-02-06T09:18:01.107Z,81.07
2023-02-06T09:22:06.918Z,78.28
2023-02-06T09:26:17.553Z,82.01
2023-02-06T09:30:21.226Z,78.92
2023-02-06T09:34:26.254Z,78.07
2023-02-06T09:38:42.757Z,78.57
2023-02-06T09:42:51.269Z,80.73
2023-02-06T09:47:01.570Z,80.46
2023-02-06T09:51:23.935Z,76.63
2023-02-06T09:55:36.027Z,79.63
2023-02-06T09:59:45.195Z,79.57
2023-02-06T10:04:20.728Z,80.25
2023-02-06T10:08:27.846Z,80.50
2023-02-06T10:12:37.605Z,79.25
2023-02-06T10:16:48.872Z,77.42
2023-02-06T10:20:54.864Z,78.70
2023-02-06T10:25:13.852Z,76.30
2023-02-06T10:29:21.318Z,78.54
2023-02-06T10:33:31.413Z,72.83
2023-02-06T10:37:56.075Z,71.34
2023-02-06T10:42:13.785Z,72.05
2023-02-06T10:46:34.582Z,76.02
2023-02-06T10:50:44.411Z,76.20
2023-02-06T10:54:58.832Z,74.51
2023-02-06T10:59:23.786Z,71.55
2023-02-06T11:03:39.748Z,69.94
2023-02-06T11:07:51.276Z,71.36
2023-02-06T11:11:56.014Z,70.61
2023-02-06T11:16:02.910Z,69.59
2023-02-06T11:20:20.531Z,68.99
2023-02-06T11:24:38.885Z,71.66
2023-02-06T11:28:57.251Z,70.82
2023-02-06T11:33:07.429Z,72.03
2023-02-06T11:37:32.550Z,71.44
2023-02-06T11:42:05.859Z,69.34
2023-02-06T11:46:16.393Z,68.48
2023-02-06T11:50:29.695Z,68.80
2023-02-06T11:54:35.718Z,67.50
2023-02-06T11:58:40.868Z,68.69
2023-02-06T12:03:00.767Z,70.45
2023-02-06T12:07:08.696Z,65.31
2023-02-06T12:11:40.079Z,65.37
2023-02-06T12:15:54.353Z,66.62
2023-02-06T12:20:04.039Z,68.28
2023-02-06T12:24:21.416Z,63.04
2023-02-06T12:28:31.252Z,65.91
2023-02-06T12:32:43.758Z,62.72
2023-02-06T12:37:12.482Z,60.21
2023-02-06T12:41:38.569Z,63.36
2023-02-06T12:45:48.342Z,62.17
2023-02-06T12:50:00.396Z,61.17
2023-02-06T12:54:20.765Z,64.80
2023-02-06T12:58:32.541Z,58.98
2023-02-06T13:02:55.878Z,60.10
2023-02-06T13:07:08.732Z,58.85
2023-02-06T13:11:29.084Z,58.75
2023-02-06T13:15:37.010Z,57.63
2023-02-06T13:20:02.523Z,62.37
2023-02-06T13:24:21.322Z,60.77
2023-02-06T13:29:10.368Z,56.62
2023-02-06T13:33:20.088Z,58.10
2023-02-06T13:37:47.317Z,55.62
2023-02-06T13:41:56.746Z,58.91
2023-02-06T13:46:07.411Z,64.63
2023-02-06T13:50:37.720Z,59.45
2023-02-06T13:55:05.250Z,55.14
2023-02-06T13:59:18.935Z,52.73
2023-02-06T14:03:28.433Z,55.14
2023-02-06T14:08:02.382Z,55.56
2023-02-06T14:12:32.105Z,55.16
2023-02-06T14:16:44.752Z,58.11
2023-02-06T14:20:56.876Z,55.93
2023-02-06T14:25:10.862Z,56.69
2023-02-06T14:29:24.884Z,58.80
2023-02-06T14:34:18.700Z,61.12
2023-02-06T14:38:48.825Z,55.35
2023-02-06T14:43:06.681Z,58.30
2023-02-06T14:47:19.241Z,59.04
2023-02-06T14:51:31.267Z,57.66
2023-02-06T14:55:39.283Z,60.45
2023-02-06T14:59:54.279Z,62.76
2023-02-06T15:04:11.630Z,59.97
2023-02-06T15:08:25.641Z,60.05
2023-02-06T15:12:34.117Z,59.72
2023-02-06T15:16:52.257Z,59.58
2023-02-06T15:20:59.850Z,59.66
2023-02-06T15:25:16.501Z,64.79
2023-02-06T15:29:30.973Z,61.57
2023-02-06T15:33:35.087Z,63.86
2023-02-06T15:37:38.968Z,61.68
2023-02-06T15:41:47.571Z,63.71
2023-02-06T15:45:56.344Z,67.43
2023-02-06T15:50:02.573Z,67.18
2023-02-06T15:54:17.852Z,66.91
2023-02-06T15:58:26.363Z,65.79
2023-02-06T16:02:45.345Z,66.85
2023-02-06T16:07:01.345Z,68.13
2023-02-06T16:11:35.574Z,67.58
2023-02-06T16:15:42.069Z,69.43
2023-02-06T16:20:05.337Z,69.96
2023-02-06T16:24:21.154Z,70.55
2023-02-06T16:28:41.636Z,73.77
2023-02-06T16:33:05.294Z,71.79
2023-02-06T16:37:14.395Z,72.82
2023-02-06T16:41:35.529Z,70.79
2023-02-06T16:45:53.926Z,72.97
2023-02-06T16:49:59.880Z,75.75
2023-02-06T16:54:03.857Z,75.85
2023-02-06T16:58:08.163Z,78.21
2023-02-06T17:02:12.911Z,78.61
2023-02-06T17:06:20.818Z,78.37
2023-02-06T17:10:28.578Z,78.54
2023-02-06T17:14:32.709Z,78.53
2023-02-06T17:18:40.515Z,79.10
2023-02-06T17:22:45.360Z,79.16
2023-02-06T17:27:14.352Z,80.05
2023-02-06T17:31:19.013Z,81.58
2023-02-06T17:35:23.186Z,80.59
2023-02-06T17:39:33.877Z,79.72
2023-02-06T17:43:37.878Z,81.98
2023-02-06T17:47:44.577Z,82.11
2023-02-06T17:51:59.024Z,83.00
2023-02-06T17:56:10.579Z,83.24
2023-02-06T18:00:17.841Z,82.46
2023-02-06T18:04:21.682Z,83.93
2023-02-06T18:08:25.366Z,83.82
2023-02-06T18:12:30.371Z,84.36
2023-02-06T18:16:38.215Z,85.36
2023-02-06T18:20:43.727Z,84.92
2023-02-06T18:24:48.191Z,86.29
2023-02-06T18:28:53.433Z,86.57
2023-02-06T18:33:01.972Z,85.57
2023-02-06T18:37:07.730Z,86.94
2023-02-06T18:41:31.746Z,86.80
2023-02-06T18:45:39.392Z,86.59
2023-02-06T18:49:43.330Z,87.50
2023-02-06T18:53:46.622Z,88.00
2023-02-06T18:57:51.821Z,88.32
2023-02-06T19:01:57.017Z,88.92
2023-02-06T19:06:00.567Z,89.68
2023-02-06T19:10:09.821Z,89.31
2023-02-06T19:14:16.961Z,89.81
2023-02-06T19:18:38.905Z,88.72
2023-02-06T19:22:52.220Z,88.77
2023-02-06T19:26:56.585Z,87.94
2023-02-06T19:31:01.870Z,89.25
2023-02-06T19:35:07.641Z,88.84
2023-02-06T19:39:13.996Z,89.91
2023-02-06T19:43:17.863Z,89.67
2023-02-06T19:47:21.933Z,89.72
2023-02-06T19:51:29.557Z,90.81
2023-02-06T19:55:33.431Z,90.11
2023-02-06T19:59:37.295Z,91.40
2023-02-06T20:03:41.216Z,91.83
2023-02-06T20:07:46.843Z,90.94
2023-02-06T20:11:50.572Z,90.85
2023-02-06T20:15:54.255Z,90.64
2023-02-06T20:20:10.601Z,89.87
2023-02-06T20:24:18.704Z,90.32
2023-02-06T20:28:22.182Z,90.63
2023-02-06T20:32:25.960Z,89.55
2023-02-06T20:36:31.126Z,89.93
2023-02-06T20:40:41.525Z,90.37
2023-02-06T20:44:45.156Z,90.20
2023-02-06T20:48:54.534Z,89.74
2023-02-06T20:52:58.761Z,89.23
2023-02-06T20:57:03.918Z,90.34
2023-02-06T21:01:14.041Z,90.96
2023-02-06T21:05:18.678Z,90.25
2023-02-06T21:09:22.510Z,90.70
2023-02-06T21:13:27.565Z,91.05
2023-02-06T21:17:34.977Z,89.11
2023-02-06T21:21:39.096Z,90.24
2023-02-06T21:25:42.955Z,88.96
2023-02-06T21:29:48.312Z,89.03
2023-02-06T21:33:58.609Z,87.22
2023-02-06T21:38:04.581Z,87.68
2023-02-06T21:42:11.959Z,88.10
2023-02-06T21:46:17.045Z,87.78
2023-02-06T21:50:20.883Z,86.68
2023-02-06T21:54:29.906Z,87.35
2023-02-06T21:58:34.607Z,87.01
2023-02-06T22:02:40.113Z,86.12
2023-02-06T22:06:43.873Z,84.64
2023-02-06T22:10:48.265Z,86.93
2023-02-06T22:14:52.014Z,85.22
2023-02-06T22:19:06.308Z,88.42
2023-02-06T22:23:10.501Z,82.83
2023-02-06T22:27:14.426Z,85.81
2023-02-06T22:31:19.788Z,84.81
2023-02-06T22:35:30.516Z,84.70
2023-02-06T22:39:38.307Z,84.05
2023-02-06T22:43:44.684Z,82.50
2023-02-06T22:47:48.749Z,83.48
2023-02-06T22:52:05.018Z,83.15
2023-02-06T22:56:35.054Z,82.29
2023-02-06T23:00:38.962Z,83.03
2023-02-06T23:04:42.622Z,83.54
2023-02-06T23:08:48.180Z,83.96
2023-02-06T23:12:55.603Z,83.64
2023-02-06T23:17:00.130Z,81.69
2023-02-06T23:21:08.364Z,82.09
2023-02-06T23:25:17.072Z,84.20
2023-02-06T23:29:23.949Z,84.50
2023-02-06T23:33:28.458Z,84.30
2023-02-06T23:37:35.740Z,85.70
2023-02-06T23:41:44.425Z,84.73
2023-02-06T23:45:51.734Z,84.00
2023-02-06T23:49:55.611Z,83.63
2023-02-06T23:54:03.097Z,81.51
